createdAt,value
2018-03-18T00:01:18.757Z,18.60
2018-03-18T00:03:46.223Z,18.60
2018-03-18T00:06:13.701Z,17.13
2018-03-18T00:08:41.161Z,17.37
2018-03-18T00:11:09.395Z,17.50
2018-03-18T00:13:36.846Z,18.07
2018-03-18T00:16:04.315Z,17.00
2018-03-18T00:18:31.768Z,16.90
2018-03-18T00:20:59.237Z,16.50
2018-03-18T00:23:26.689Z,19.70
2018-03-18T00:25:54.156Z,17.90
2018-03-18T00:30:48.654Z,23.40
2018-03-18T00:33:16.110Z,17.87
2018-03-18T00:35:43.578Z,17.83
2018-03-18T00:38:11.046Z,16.90
2018-03-18T00:40:38.503Z,16.77
2018-03-18T00:43:05.962Z,17.87
2018-03-18T00:45:33.439Z,17.27
2018-03-18T00:48:01.658Z,17.17
2018-03-18T00:50:29.130Z,16.87
2018-03-18T01:10:06.442Z,13.23
2018-03-18T01:12:34.673Z,22.75
2018-03-18T01:15:02.141Z,23.17
2018-03-18T01:17:29.614Z,22.37
2018-03-18T01:19:57.084Z,20.65
2018-03-18T01:22:24.548Z,20.50
2018-03-18T01:24:52.007Z,21.90
2018-03-18T01:27:19.465Z,21.37
2018-03-18T01:29:46.926Z,22.07
2018-03-18T01:32:14.399Z,21.55
2018-03-18T01:34:41.853Z,22.05
2018-03-18T01:37:09.325Z,23.10
2018-03-18T01:39:36.778Z,21.70
2018-03-18T01:42:04.250Z,22.60
2018-03-18T01:44:32.485Z,21.73
2018-03-18T01:46:59.954Z,18.98
2018-03-18T01:49:27.427Z,19.80
2018-03-18T01:51:54.898Z,20.90
2018-03-18T01:54:22.361Z,21.30
2018-03-18T01:56:50.594Z,20.10
2018-03-18T01:59:18.057Z,21.77
2018-03-18T02:01:45.531Z,22.00
2018-03-18T02:04:12.985Z,21.12
2018-03-18T02:06:40.461Z,20.95
2018-03-18T02:09:07.921Z,20.30
2018-03-18T02:11:35.402Z,20.62
2018-03-18T02:14:03.637Z,21.42
2018-03-18T02:16:31.098Z,19.90
2018-03-18T02:18:58.567Z,21.00
2018-03-18T02:21:26.047Z,20.45
2018-03-18T02:23:54.266Z,20.52
2018-03-18T02:26:21.722Z,21.58
2018-03-18T02:28:49.182Z,19.75
2018-03-18T02:31:16.656Z,21.00
2018-03-18T02:33:44.118Z,20.30
2018-03-18T02:36:11.598Z,20.40
2018-03-18T02:38:39.060Z,19.80
2018-03-18T02:41:06.534Z,20.17
2018-03-18T02:43:34.769Z,21.35
2018-03-18T02:46:02.237Z,19.67
2018-03-18T02:48:29.707Z,18.85
2018-03-18T02:50:57.201Z,19.87
2018-03-18T02:53:24.666Z,18.95
2018-03-18T02:55:52.119Z,20.48
2018-03-18T02:58:19.591Z,19.67
2018-03-18T03:00:47.052Z,20.35
2018-03-18T03:03:14.513Z,19.23
2018-03-18T03:05:41.986Z,21.37
2018-03-18T03:08:09.481Z,20.95
2018-03-18T03:10:36.935Z,19.77
2018-03-18T03:13:05.174Z,20.52
2018-03-18T03:15:32.645Z,19.98
2018-03-18T03:18:00.131Z,20.15
2018-03-18T03:20:28.359Z,20.00
2018-03-18T03:22:55.830Z,20.30
2018-03-18T03:25:23.302Z,20.15
2018-03-18T03:27:50.772Z,19.50
2018-03-18T03:30:18.251Z,19.77
2018-03-18T03:32:46.489Z,19.65
2018-03-18T03:35:13.952Z,19.67
2018-03-18T03:37:41.429Z,20.45
2018-03-18T03:40:09.670Z,21.00
2018-03-18T03:42:37.139Z,19.33
2018-03-18T03:45:04.615Z,19.27
2018-03-18T03:47:32.075Z,20.50
2018-03-18T03:49:59.551Z,20.33
2018-03-18T03:52:27.789Z,20.05
2018-03-18T03:54:55.245Z,19.23
2018-03-18T03:57:22.714Z,20.27
2018-03-18T03:59:50.180Z,20.80
2018-03-18T04:02:17.669Z,19.50
2018-03-18T04:04:45.907Z,19.20
2018-03-18T04:07:13.370Z,19.83
2018-03-18T04:09:40.844Z,19.77
2018-03-18T04:12:08.319Z,19.77
2018-03-18T04:14:36.537Z,20.80
2018-03-18T04:17:04.001Z,20.12
2018-03-18T04:19:31.472Z,19.73
2018-03-18T04:21:58.939Z,20.05
2018-03-18T04:26:53.411Z,14.80
2018-03-18T04:29:20.881Z,21.20
2018-03-18T04:31:48.335Z,21.48
2018-03-18T04:34:15.797Z,16.37
2018-03-18T04:36:43.263Z,17.30
2018-03-18T04:39:11.490Z,16.07
2018-03-18T04:41:38.955Z,16.37
2018-03-18T04:44:06.416Z,13.93
2018-03-18T04:46:33.881Z,15.57
2018-03-18T04:49:01.346Z,16.10
2018-03-18T04:51:28.817Z,16.57
2018-03-18T04:53:56.298Z,14.47
2018-03-18T04:56:23.755Z,17.40
2018-03-18T04:58:51.227Z,13.83
2018-03-18T05:01:18.693Z,15.90
2018-03-18T05:03:46.922Z,16.70
2018-03-18T05:06:14.383Z,16.60
2018-03-18T05:08:41.855Z,15.33
2018-03-18T05:11:09.329Z,16.80
2018-03-18T05:13:36.785Z,15.87
2018-03-18T05:16:04.245Z,15.47
2018-03-18T05:18:31.715Z,15.67
2018-03-18T05:20:59.930Z,17.27
2018-03-18T05:23:27.398Z,16.20
2018-03-18T05:25:54.859Z,15.83
2018-03-18T05:28:22.334Z,15.80
2018-03-18T05:30:49.800Z,15.10
2018-03-18T05:33:17.271Z,15.27
2018-03-18T05:35:44.731Z,14.47
2018-03-18T05:38:12.221Z,13.77
2018-03-18T05:40:40.446Z,15.50
2018-03-18T05:43:07.915Z,16.00
2018-03-18T05:45:35.369Z,15.40
2018-03-18T05:48:02.842Z,15.33
2018-03-18T05:50:30.305Z,14.60
2018-03-18T05:52:58.563Z,14.87
2018-03-18T05:55:26.035Z,15.20
2018-03-18T05:57:53.518Z,14.43
2018-03-18T06:00:21.752Z,14.83
2018-03-18T06:02:49.223Z,15.50
2018-03-18T06:05:16.682Z,14.30
2018-03-18T06:07:44.158Z,15.00
2018-03-18T06:10:12.395Z,15.90
2018-03-18T06:12:39.859Z,15.10
2018-03-18T06:15:07.330Z,14.20
2018-03-18T06:17:34.804Z,14.73
2018-03-18T06:20:02.268Z,14.53
2018-03-18T06:22:30.502Z,15.73
2018-03-18T06:24:57.972Z,13.77
2018-03-18T06:27:25.438Z,13.40
2018-03-18T06:29:52.893Z,13.97
2018-03-18T06:32:20.367Z,13.60
2018-03-18T06:34:47.832Z,14.40
2018-03-18T06:37:16.068Z,16.43
2018-03-18T06:39:43.555Z,14.63
2018-03-18T06:42:11.026Z,14.60
2018-03-18T06:44:39.254Z,13.00
2018-03-18T06:47:06.727Z,14.73
2018-03-18T06:49:34.198Z,14.90
2018-03-18T06:52:01.652Z,12.50
2018-03-18T06:54:29.115Z,14.50
2018-03-18T06:56:56.571Z,14.90
2018-03-18T06:59:24.050Z,14.30
2018-03-18T07:01:52.291Z,13.83
2018-03-18T07:04:19.762Z,12.80
2018-03-18T07:06:47.219Z,13.03
2018-03-18T07:09:14.711Z,13.97
2018-03-18T07:11:42.937Z,14.40
2018-03-18T07:14:11.172Z,14.60
2018-03-18T07:16:38.628Z,14.03
2018-03-18T07:19:06.099Z,14.93
2018-03-18T07:21:33.560Z,13.73
2018-03-18T07:24:01.041Z,13.27
2018-03-18T07:26:28.500Z,12.77
2018-03-18T07:28:55.963Z,13.70
2018-03-18T07:31:23.424Z,13.50
2018-03-18T07:33:50.894Z,13.37
2018-03-18T07:36:18.352Z,16.03
2018-03-18T07:38:45.875Z,13.93
2018-03-18T07:41:13.288Z,14.67
2018-03-18T07:43:40.771Z,13.67
2018-03-18T07:46:08.994Z,12.80
2018-03-18T07:48:36.456Z,12.70
2018-03-18T07:51:03.915Z,13.00
2018-03-18T07:53:31.379Z,13.50
2018-03-18T07:55:58.837Z,15.33
2018-03-18T07:58:26.307Z,13.83
2018-03-18T08:00:53.769Z,14.33
2018-03-18T08:03:21.261Z,14.97
2018-03-18T08:05:48.734Z,14.37
2018-03-18T08:08:16.197Z,13.73
2018-03-18T08:10:43.675Z,13.50
2018-03-18T08:13:11.139Z,13.73
2018-03-18T08:15:38.607Z,13.10
2018-03-18T08:18:06.080Z,13.70
2018-03-18T08:20:33.538Z,14.03
2018-03-18T08:23:01.771Z,13.73
2018-03-18T08:25:29.240Z,13.17
2018-03-18T08:27:57.463Z,15.17
2018-03-18T08:30:25.703Z,14.40
2018-03-18T08:32:53.165Z,13.30
2018-03-18T08:35:20.637Z,13.60
2018-03-18T08:37:48.102Z,12.70
2018-03-18T08:40:16.338Z,13.50
2018-03-18T08:42:43.807Z,13.13
2018-03-18T08:45:11.274Z,13.70
2018-03-18T08:47:38.784Z,13.37
2018-03-18T08:50:06.243Z,12.90
2018-03-18T08:52:33.707Z,12.33
2018-03-18T08:55:01.188Z,13.30
2018-03-18T08:57:28.656Z,12.73
2018-03-18T08:59:56.117Z,13.30
2018-03-18T09:02:23.588Z,12.20
2018-03-18T09:04:51.059Z,12.07
2018-03-18T09:07:19.294Z,13.13
2018-03-18T09:09:46.765Z,13.30
2018-03-18T09:12:14.220Z,13.07
2018-03-18T09:14:41.695Z,14.00
2018-03-18T09:17:09.152Z,12.63
2018-03-18T09:19:36.618Z,12.40
2018-03-18T09:22:04.081Z,12.77
2018-03-18T09:24:32.322Z,13.43
2018-03-18T09:26:59.791Z,9.80
2018-03-18T09:29:27.267Z,13.57
2018-03-18T09:31:54.713Z,11.67
2018-03-18T09:34:22.179Z,14.90
2018-03-18T09:36:49.653Z,12.63
2018-03-18T09:39:17.881Z,10.60
2018-03-18T09:41:45.350Z,14.77
2018-03-18T09:44:12.805Z,11.20
2018-03-18T09:46:40.271Z,12.43
2018-03-18T09:49:07.723Z,11.27
2018-03-18T09:51:35.213Z,11.00
2018-03-18T09:54:02.663Z,11.80
2018-03-18T09:56:30.136Z,11.40
2018-03-18T09:58:58.356Z,11.57
2018-03-18T10:01:25.823Z,11.63
2018-03-18T10:03:53.288Z,11.63
2018-03-18T10:06:20.758Z,12.47
2018-03-18T10:11:15.235Z,11.83
2018-03-18T10:13:42.700Z,11.33
2018-03-18T10:16:10.172Z,11.80
2018-03-18T10:18:37.632Z,12.50
2018-03-18T10:25:59.109Z,12.43
2018-03-18T10:28:27.340Z,12.00
2018-03-18T10:30:54.809Z,11.30
2018-03-18T10:33:22.266Z,12.20
2018-03-18T10:35:49.739Z,10.87
2018-03-18T10:38:17.203Z,11.00
2018-03-18T10:48:06.455Z,10.83
2018-03-18T10:50:34.713Z,13.77
2018-03-18T10:53:02.172Z,14.15
2018-03-18T10:55:30.417Z,13.03
2018-03-18T10:57:57.875Z,14.80
2018-03-18T11:00:30.954Z,11.27
2018-03-18T11:02:58.411Z,11.30
2018-03-18T11:05:25.884Z,11.30
2018-03-18T11:07:53.351Z,10.07
2018-03-18T11:10:20.806Z,13.05
2018-03-18T11:12:48.276Z,14.35
2018-03-18T11:15:15.740Z,11.73
2018-03-18T11:17:43.208Z,11.57
2018-03-18T11:22:38.461Z,9.83
2018-03-18T11:25:05.934Z,13.38
2018-03-18T11:27:33.398Z,10.53
2018-03-18T11:30:00.866Z,12.40
2018-03-18T11:32:28.330Z,11.23
2018-03-18T11:34:55.783Z,10.10
2018-03-18T11:37:23.256Z,11.23
2018-03-18T11:39:50.721Z,11.87
2018-03-18T11:42:18.196Z,11.30
2018-03-18T11:44:45.653Z,11.83
2018-03-18T11:47:13.124Z,11.43
2018-03-18T12:01:56.461Z,12.57
2018-03-18T12:43:37.748Z,10.50
2018-03-18T12:46:05.227Z,14.70
2018-03-18T12:48:32.687Z,15.70
2018-03-18T12:51:00.165Z,12.67
2018-03-18T12:53:28.381Z,12.67
2018-03-18T12:55:55.855Z,12.27
2018-03-18T12:58:23.320Z,12.50
2018-03-18T13:00:50.797Z,11.70
2018-03-18T13:03:18.254Z,11.50
2018-03-18T13:05:45.720Z,12.80
2018-03-18T13:08:13.184Z,11.77
2018-03-18T13:10:41.410Z,10.90
2018-03-18T13:13:08.871Z,12.43
2018-03-18T13:15:36.335Z,11.77
2018-03-18T13:18:03.800Z,12.03
2018-03-18T13:20:31.263Z,10.97
2018-03-18T13:22:58.735Z,12.07
2018-03-18T13:25:26.197Z,11.47
2018-03-18T13:27:53.663Z,12.43
2018-03-18T13:30:21.122Z,13.00
2018-03-18T13:32:48.587Z,13.30
2018-03-18T13:35:16.811Z,13.10
2018-03-18T13:37:44.273Z,12.43
2018-03-18T13:40:11.735Z,12.50
2018-03-18T13:42:39.197Z,12.87
2018-03-18T13:45:06.665Z,13.13
2018-03-18T13:47:34.131Z,13.27
2018-03-18T13:50:01.602Z,13.93
2018-03-18T13:52:29.076Z,12.17
2018-03-18T13:54:57.304Z,12.00
2018-03-18T13:57:24.784Z,13.57
2018-03-18T13:59:52.233Z,12.90
2018-03-18T14:02:19.695Z,12.77
2018-03-18T14:04:47.165Z,13.87
2018-03-18T14:07:14.635Z,12.80
2018-03-18T14:09:42.858Z,13.17
2018-03-18T14:12:10.344Z,12.93
2018-03-18T14:14:37.796Z,11.03
2018-03-18T14:17:05.268Z,12.57
2018-03-18T14:19:32.723Z,12.43
2018-03-18T14:22:00.190Z,11.50
2018-03-18T14:24:27.651Z,13.30
2018-03-18T14:26:55.124Z,12.53
2018-03-18T14:29:23.363Z,15.80
2018-03-18T14:31:50.824Z,17.10
2018-03-18T14:34:18.292Z,16.40
2018-03-18T14:36:45.755Z,17.55
2018-03-18T14:39:13.219Z,15.93
2018-03-18T14:41:41.471Z,17.65
2018-03-18T14:44:08.926Z,16.33
2018-03-18T14:46:36.403Z,16.23
2018-03-18T14:49:03.863Z,17.00
2018-03-18T14:51:31.328Z,17.30
2018-03-18T14:53:59.567Z,16.08
2018-03-18T14:56:27.045Z,18.02
2018-03-18T14:58:54.523Z,17.33
2018-03-18T15:01:22.750Z,17.20
2018-03-18T15:03:50.215Z,18.15
2018-03-18T15:06:17.677Z,16.45
2018-03-18T15:08:45.149Z,16.67
2018-03-18T15:11:12.615Z,17.27
2018-03-18T15:13:40.095Z,17.40
2018-03-18T15:16:08.318Z,17.73
2018-03-18T15:18:35.778Z,17.70
2018-03-18T15:21:03.266Z,14.27
2018-03-18T15:23:30.747Z,14.17
2018-03-18T15:25:58.975Z,13.77
2018-03-18T15:28:26.444Z,13.23
2018-03-18T15:30:53.904Z,14.03
2018-03-18T15:33:21.419Z,13.70
2018-03-18T15:35:48.850Z,13.50
2018-03-18T15:38:16.314Z,17.70
2018-03-18T15:40:44.555Z,16.73
2018-03-18T15:43:12.034Z,14.43
2018-03-18T16:02:49.400Z,12.10
2018-03-18T16:05:16.876Z,12.00
2018-03-18T16:07:44.341Z,12.00
2018-03-18T16:10:11.800Z,13.40
2018-03-18T16:12:39.279Z,13.83
2018-03-18T16:15:06.748Z,17.05
2018-03-18T16:17:34.975Z,18.33
2018-03-18T16:20:02.440Z,18.48
2018-03-18T16:22:29.910Z,16.00
2018-03-18T16:24:57.363Z,12.00
2018-03-18T16:27:24.831Z,13.40
2018-03-18T16:30:04.041Z,13.20
2018-03-18T16:32:31.515Z,12.70
2018-03-18T16:34:58.978Z,13.07
2018-03-18T16:49:43.064Z,17.77
2018-03-18T16:52:10.546Z,17.95
2018-03-18T16:54:38.016Z,16.90
2018-03-18T16:57:05.493Z,18.37
2018-03-18T16:59:32.965Z,18.05
2018-03-18T17:02:00.438Z,17.25
2018-03-18T17:04:28.665Z,17.65
2018-03-18T17:06:56.137Z,13.70
2018-03-18T17:16:45.443Z,13.17
2018-03-18T17:19:12.953Z,14.97
2018-03-18T17:21:41.184Z,14.73
2018-03-18T17:24:08.655Z,13.00
2018-03-18T17:26:36.169Z,13.23
2018-03-18T17:29:03.639Z,14.30
2018-03-18T17:31:31.108Z,12.07
2018-03-18T17:33:58.580Z,14.60
2018-03-18T17:36:26.044Z,12.90
2018-03-18T17:38:53.522Z,14.43
2018-03-18T17:41:20.985Z,13.47
2018-03-18T17:43:49.222Z,13.07
2018-03-18T17:46:28.632Z,13.47
2018-03-18T17:49:08.175Z,13.70
2018-03-18T17:51:58.368Z,13.60
2018-03-18T17:54:37.681Z,13.70
2018-03-18T17:57:05.919Z,14.13
2018-03-18T17:59:33.399Z,13.80
2018-03-18T18:02:01.627Z,14.97
2018-03-18T18:04:29.108Z,14.17
2018-03-18T18:06:56.572Z,14.03
2018-03-18T18:09:24.034Z,13.93
2018-03-18T18:11:51.500Z,14.43
2018-03-18T18:14:18.971Z,14.50
2018-03-18T18:16:47.207Z,14.53
2018-03-18T18:19:14.686Z,14.60
2018-03-18T18:21:42.159Z,14.20
2018-03-18T18:24:10.418Z,15.37
2018-03-18T18:26:37.872Z,15.40
2018-03-18T18:29:05.352Z,13.90
2018-03-18T18:31:32.824Z,15.40
2018-03-18T18:34:01.115Z,13.70
2018-03-18T18:36:28.539Z,15.00
2018-03-18T18:38:56.011Z,13.80
2018-03-18T18:41:24.263Z,15.20
2018-03-18T18:43:51.729Z,14.00
2018-03-18T18:46:19.204Z,13.77
2018-03-18T18:48:47.431Z,13.77
2018-03-18T18:51:14.898Z,13.90
2018-03-18T18:53:42.378Z,13.70
2018-03-18T18:56:09.838Z,13.67
2018-03-18T18:58:37.305Z,12.87
2018-03-18T19:01:04.767Z,15.17
2018-03-18T19:03:33.008Z,14.33
2018-03-18T19:06:00.468Z,15.83
2018-03-18T19:08:27.932Z,14.40
2018-03-18T19:10:55.405Z,14.90
2018-03-18T19:13:22.874Z,14.47
2018-03-18T19:15:50.359Z,15.40
2018-03-18T19:18:17.819Z,14.30
2018-03-18T19:20:45.299Z,15.70
2018-03-18T19:23:12.767Z,14.40
2018-03-18T19:25:40.251Z,15.50
2018-03-18T19:28:07.704Z,13.33
2018-03-18T19:30:35.172Z,14.40
2018-03-18T19:33:02.640Z,14.30
2018-03-18T19:35:30.901Z,14.17
2018-03-18T19:37:58.354Z,14.70
2018-03-18T19:40:25.830Z,14.17
2018-03-18T19:42:54.077Z,15.13
2018-03-18T19:45:21.558Z,14.40
2018-03-18T19:47:49.006Z,13.50
2018-03-18T19:50:16.482Z,13.00
2018-03-18T19:52:43.936Z,13.97
2018-03-18T19:55:11.401Z,14.00
2018-03-18T19:57:39.634Z,13.70
2018-03-18T20:00:07.107Z,14.23
2018-03-18T20:02:34.563Z,12.90
2018-03-18T20:05:02.034Z,14.00
2018-03-18T20:07:29.487Z,13.27
2018-03-18T20:09:56.953Z,13.70
2018-03-18T20:12:24.416Z,12.97
2018-03-18T20:14:51.875Z,13.97
2018-03-18T20:17:19.357Z,13.13
2018-03-18T20:19:47.596Z,13.57
2018-03-18T20:22:15.065Z,13.20
2018-03-18T20:24:42.523Z,15.10
2018-03-18T20:27:09.995Z,15.13
2018-03-18T20:29:38.293Z,14.00
2018-03-18T20:32:05.772Z,14.93
2018-03-18T20:34:33.268Z,12.70
2018-03-18T20:37:00.739Z,13.90
2018-03-18T20:39:28.212Z,15.57
2018-03-18T20:41:56.454Z,13.70
2018-03-18T20:44:23.935Z,19.62
2018-03-18T20:46:52.176Z,19.77
2018-03-18T20:49:19.638Z,19.60
2018-03-18T20:51:47.106Z,19.58
2018-03-18T20:54:14.567Z,19.08
2018-03-18T20:56:42.048Z,19.30
2018-03-18T20:59:10.270Z,18.95
2018-03-18T21:01:37.766Z,18.57
2018-03-18T21:04:05.228Z,17.42
2018-03-18T21:06:32.690Z,17.60
2018-03-18T21:09:00.157Z,17.75
2018-03-18T21:11:28.403Z,18.23
2018-03-18T21:13:55.866Z,17.20
2018-03-18T21:16:23.902Z,15.80
2018-03-18T21:18:51.381Z,16.10
2018-03-18T21:21:18.843Z,16.13
2018-03-18T21:23:46.310Z,15.88
2018-03-18T21:26:13.777Z,16.23
2018-03-18T21:28:41.255Z,14.25
2018-03-18T21:31:09.496Z,16.23
2018-03-18T21:33:36.970Z,14.82
2018-03-18T21:36:04.448Z,14.82
2018-03-18T21:38:32.672Z,14.93
2018-03-18T21:41:00.159Z,15.90
2018-03-18T21:43:27.622Z,15.32
2018-03-18T21:45:55.099Z,15.38
2018-03-18T21:48:23.322Z,14.55
2018-03-18T21:50:50.810Z,14.85
2018-03-18T21:58:12.310Z,13.45
2018-03-18T22:00:39.790Z,13.75
2018-03-18T22:03:07.255Z,14.90
2018-03-18T22:05:34.730Z,14.55
2018-03-18T22:08:02.182Z,15.03
2018-03-18T22:10:30.420Z,14.32
2018-03-18T22:12:57.886Z,13.98
2018-03-18T22:15:25.380Z,14.40
2018-03-18T22:17:52.839Z,13.85
2018-03-18T22:20:20.333Z,14.00
2018-03-18T22:22:48.565Z,14.30
2018-03-18T22:25:16.039Z,14.45
2018-03-18T22:27:43.506Z,13.93
2018-03-18T22:30:10.971Z,14.27
2018-03-18T22:32:38.443Z,10.83
2018-03-18T22:35:06.673Z,11.43
2018-03-18T22:37:34.159Z,14.07
2018-03-18T22:40:01.642Z,14.18
2018-03-18T22:42:29.871Z,15.02
2018-03-18T22:44:57.359Z,15.35
2018-03-18T22:47:24.821Z,14.00
2018-03-18T22:49:52.290Z,14.25
2018-03-18T22:52:20.536Z,14.87
2018-03-18T22:54:48.009Z,15.80
2018-03-18T22:57:15.480Z,15.00
2018-03-18T22:59:43.710Z,15.20
2018-03-18T23:02:11.208Z,15.48
2018-03-18T23:04:38.667Z,15.40
2018-03-18T23:07:06.908Z,15.20
2018-03-18T23:09:34.387Z,15.38
2018-03-18T23:12:01.866Z,14.93
2018-03-18T23:14:30.095Z,15.40
2018-03-18T23:16:57.577Z,16.10
2018-03-18T23:19:25.053Z,15.60
2018-03-18T23:21:52.519Z,15.90
2018-03-18T23:24:20.746Z,15.97
2018-03-18T23:26:48.228Z,16.90
2018-03-18T23:29:15.694Z,15.48
2018-03-18T23:31:43.167Z,15.90
2018-03-18T23:34:11.403Z,16.17
2018-03-18T23:36:38.875Z,16.83
2018-03-18T23:39:06.355Z,15.80
2018-03-18T23:41:34.590Z,16.85
2018-03-18T23:44:02.075Z,16.60
2018-03-18T23:46:29.549Z,16.65
2018-03-18T23:48:57.777Z,16.23
2018-03-18T23:51:25.263Z,16.62
2018-03-18T23:53:52.726Z,16.33
2018-03-18T23:56:20.212Z,17.30
2018-03-18T23:58:48.435Z,16.70
